createdAt,value
2018-09-04T15:27:15.379Z,32.30
2018-09-04T15:38:12.227Z,46.40
2018-09-04T15:43:27.808Z,46.70
2018-09-04T15:48:48.740Z,46.50
2018-09-04T15:54:01.803Z,46.60
2018-09-04T15:59:24.940Z,46.50
2018-09-04T16:11:19.640Z,46.10
2018-09-04T16:16:31.078Z,45.40
2018-09-04T16:21:45.191Z,45.70
2018-09-04T16:26:57.474Z,45.40
2018-09-04T16:32:27.227Z,45.70
2018-09-04T16:37:54.045Z,45.40
2018-09-04T16:43:09.007Z,44.70
2018-09-04T16:48:17.678Z,43.70
2018-09-04T16:53:29.443Z,43.30
2018-09-04T16:58:39.878Z,43.60
2018-09-04T17:09:11.852Z,44.00
2018-09-04T17:14:23.584Z,44.60
2018-09-04T17:19:38.103Z,44.30
2018-09-04T17:24:56.645Z,44.60
2018-09-04T17:30:10.131Z,44.50
2018-09-04T17:35:25.670Z,45.10
2018-09-04T17:40:47.478Z,45.50
2018-09-04T17:45:57.163Z,45.80
2018-09-04T17:51:03.045Z,45.70
2018-09-04T17:56:18.295Z,46.10
2018-09-04T18:01:31.730Z,46.40
2018-09-04T18:06:46.317Z,46.60
2018-09-04T18:11:59.272Z,46.80
2018-09-04T18:17:14.398Z,47.00
2018-09-04T18:22:32.341Z,47.20
2018-09-04T18:27:46.749Z,47.40
2018-09-04T18:33:06.544Z,47.50
2018-09-04T18:43:51.957Z,47.80
2018-09-04T18:49:11.935Z,47.90
2018-09-04T18:54:35.524Z,48.20
2018-09-04T19:05:31.026Z,48.40
2018-09-04T19:21:47.680Z,48.80
2018-09-04T19:32:54.229Z,49.10
2018-09-04T19:38:34.830Z,48.60
